Time;durP1;ratioP1;P1;durP2;ratioP2;P2;SDS_P1;SDS_P2;PMS_P1;PMS_P2;Temp;Humidity;BMP_temperature;BMP_pressure;BME280_temperature;BME280_humidity;BME280_pressure;Samples;Min_cycle;Max_cycle;Signal;HPM_P1;HPM_P2
2022/01/26 00:06:08;;;;;;;54.63;23.73;;;3.00;99.90;;;;;;4900372;29;20202;-93
2022/01/26 00:08:35;;;;;;;45.13;21.53;;;3.00;99.90;;;;;;4899452;29;20171;-94
2022/01/26 00:11:01;;;;;;;45.33;21.43;;;3.00;99.90;;;;;;4899378;29;20214;-93
2022/01/26 00:13:26;;;;;;;41.10;20.33;;;3.00;99.90;;;;;;4899643;29;20237;-93
2022/01/26 00:15:53;;;;;;;47.40;21.10;;;3.00;99.90;;;;;;4899164;29;20281;-93
2022/01/26 00:18:21;;;;;;;44.70;19.80;;;3.00;99.90;;;;;;4899269;29;20194;-93
2022/01/26 00:20:54;;;;;;;46.00;20.70;;;2.90;99.90;;;;;;4899277;29;20213;-93
2022/01/26 00:24:02;;;;;;;40.77;18.77;;;2.90;99.90;;;;;;4899563;29;20222;-93
2022/01/26 00:26:15;;;;;;;41.03;18.97;;;2.90;99.90;;;;;;4900191;29;20190;-92
2022/01/26 00:38:34;;;;;;;39.47;17.53;;;2.90;99.90;;;;;;4900623;29;20173;-93
2022/01/26 00:39:56;;;;;;;33.10;16.23;;;3.00;99.90;;;;;;4900361;29;20182;-93
2022/01/26 00:42:22;;;;;;;36.00;16.83;;;3.00;99.90;;;;;;4899186;29;20180;-94
2022/01/26 00:44:50;;;;;;;30.23;15.77;;;3.00;99.90;;;;;;4898921;29;20197;-93
2022/01/26 00:47:16;;;;;;;33.60;15.87;;;3.00;99.90;;;;;;4898599;29;20282;-93
2022/01/26 00:49:41;;;;;;;27.87;13.67;;;3.00;99.90;;;;;;4899021;29;20360;-93
2022/01/26 00:52:12;;;;;;;32.37;15.13;;;3.10;99.90;;;;;;4899136;29;20222;-93
2022/01/26 00:54:38;;;;;;;30.30;15.10;;;3.00;99.90;;;;;;4898987;29;20179;-93
2022/01/26 00:57:04;;;;;;;28.20;13.67;;;3.00;99.90;;;;;;4899005;29;20279;-94
2022/01/26 00:59:29;;;;;;;26.50;12.97;;;3.00;99.90;;;;;;4898842;29;20183;-93
2022/01/26 01:01:56;;;;;;;25.83;13.63;;;3.00;99.90;;;;;;4898877;29;20194;-93
2022/01/26 01:04:22;;;;;;;25.53;12.90;;;3.10;99.90;;;;;;4899324;29;20190;-93
2022/01/26 01:06:54;;;;;;;26.10;13.57;;;3.00;99.90;;;;;;4899398;29;20191;-94
2022/01/26 01:09:22;;;;;;;27.67;12.73;;;3.00;99.90;;;;;;4899004;29;20176;-93
2022/01/26 01:11:50;;;;;;;26.37;13.27;;;3.00;99.90;;;;;;4898784;29;20218;-94
2022/01/26 01:14:16;;;;;;;27.20;12.70;;;3.00;99.90;;;;;;4899739;29;20163;-94
2022/01/26 01:16:42;;;;;;;25.20;12.70;;;3.00;99.90;;;;;;4898884;29;20221;-93
2022/01/26 01:19:28;;;;;;;22.07;12.13;;;3.00;99.90;;;;;;4901773;29;20179;-93
2022/01/26 01:27:04;;;;;;;20.63;10.43;;;3.00;99.90;;;;;;4903635;29;20172;-94
2022/01/26 01:29:46;;;;;;;22.17;11.43;;;2.90;99.90;;;;;;4902485;29;20191;-93
2022/01/26 01:32:15;;;;;;;20.70;10.63;;;2.90;99.90;;;;;;4902230;29;20222;-91
2022/01/26 01:34:41;;;;;;;20.00;10.63;;;2.90;99.90;;;;;;4902210;29;20190;-92
2022/01/26 01:37:11;;;;;;;19.97;10.70;;;2.90;99.90;;;;;;4902354;29;20180;-92
2022/01/26 01:39:37;;;;;;;19.13;10.13;;;2.90;99.90;;;;;;4902561;29;20175;-93
2022/01/26 01:42:06;;;;;;;20.50;10.10;;;2.90;99.90;;;;;;4902426;29;20183;-94
2022/01/26 01:44:35;;;;;;;19.10;9.83;;;2.90;99.90;;;;;;4902038;29;20263;-93
2022/01/26 01:47:02;;;;;;;17.80;9.83;;;2.90;99.90;;;;;;4901772;29;20219;-93
2022/01/26 01:49:28;;;;;;;17.50;9.73;;;2.90;99.90;;;;;;4901968;29;20174;-93
2022/01/26 01:51:59;;;;;;;20.27;10.77;;;2.90;99.90;;;;;;4901894;29;20266;-92
2022/01/26 01:54:24;;;;;;;18.10;9.33;;;2.90;99.90;;;;;;4901986;29;20258;-92
2022/01/26 01:56:55;;;;;;;19.53;10.17;;;3.00;99.90;;;;;;4902066;29;20274;-94
2022/01/26 01:59:30;;;;;;;15.50;8.70;;;3.00;99.90;;;;;;4902017;29;20622;-93
2022/01/26 02:01:58;;;;;;;16.33;8.83;;;3.10;99.90;;;;;;4901263;29;20222;-93
2022/01/26 02:04:24;;;;;;;18.13;8.53;;;3.10;99.90;;;;;;4901708;29;20202;-93
2022/01/26 02:06:50;;;;;;;15.67;8.70;;;3.00;99.90;;;;;;4901639;29;20623;-92
2022/01/26 02:09:16;;;;;;;18.90;10.30;;;3.00;99.90;;;;;;4901613;29;20631;-92
2022/01/26 02:11:50;;;;;;;17.63;9.23;;;3.00;99.90;;;;;;4901441;29;20214;-93
2022/01/26 02:14:42;;;;;;;20.63;9.87;;;3.00;99.90;;;;;;4901577;29;20270;-93
2022/01/26 02:52:55;;;;;;;20.87;10.73;;;2.90;99.90;;;;;;4902169;29;20258;-92
2022/01/26 02:58:35;;;;;;;24.37;11.23;;;2.90;99.90;;;;;;4902114;29;20179;-92
2022/01/26 03:00:46;;;;;;;17.10;8.83;;;2.90;99.90;;;;;;4901377;29;20179;-93
2022/01/26 03:03:25;;;;;;;23.13;10.50;;;2.90;99.90;;;;;;4900561;29;20190;-93
2022/01/26 03:06:00;;;;;;;21.27;10.53;;;2.90;99.90;;;;;;4900728;29;20175;-93
2022/01/26 03:08:33;;;;;;;22.97;10.87;;;2.90;99.90;;;;;;4900739;29;20187;-93
2022/01/26 03:11:06;;;;;;;20.53;9.60;;;2.90;99.90;;;;;;4900517;29;20303;-93
2022/01/26 03:13:34;;;;;;;23.87;11.00;;;2.90;99.90;;;;;;4900745;29;20187;-93
2022/01/26 03:16:07;;;;;;;21.60;10.97;;;2.90;99.90;;;;;;4900564;29;20250;-93
2022/01/26 03:21:02;;;;;;;24.27;10.80;;;2.90;99.90;;;;;;4901906;29;20186;-93
2022/01/26 03:32:03;;;;;;;23.47;11.37;;;2.90;99.90;;;;;;4901420;29;20219;-93
2022/01/26 03:34:20;;;;;;;23.57;12.10;;;2.90;99.90;;;;;;4901026;29;20183;-92
2022/01/26 03:36:50;;;;;;;23.27;12.07;;;2.90;99.90;;;;;;4900075;29;20198;-92
2022/01/26 03:39:19;;;;;;;27.60;11.77;;;2.80;99.90;;;;;;4900086;29;20214;-92
2022/01/26 03:44:16;;;;;;;22.43;11.40;;;2.90;99.90;;;;;;4900805;29;20179;-93
2022/01/26 03:46:42;;;;;;;22.60;11.83;;;2.90;99.90;;;;;;4899540;29;20246;-93
2022/01/26 03:49:09;;;;;;;22.57;11.23;;;2.90;99.90;;;;;;4899771;29;20180;-92
2022/01/26 03:54:05;;;;;;;26.20;12.73;;;2.90;99.90;;;;;;4899705;29;20665;-88
2022/01/26 03:56:31;;;;;;;24.20;12.03;;;2.90;99.90;;;;;;4899428;29;20187;-88
2022/01/26 03:58:57;;;;;;;22.50;12.50;;;2.90;99.90;;;;;;4899320;29;20276;-89
2022/01/26 04:01:23;;;;;;;25.60;12.37;;;2.90;99.90;;;;;;4899670;29;20243;-89
2022/01/26 04:03:49;;;;;;;29.07;13.60;;;2.80;99.90;;;;;;4899534;29;20271;-88
2022/01/26 04:06:14;;;;;;;26.53;13.63;;;2.80;99.90;;;;;;4915922;29;20262;-89
2022/01/26 04:08:43;;;;;;;28.67;13.53;;;2.80;99.90;;;;;;4918103;29;20175;-89
2022/01/26 04:13:36;;;;;;;29.37;14.13;;;2.90;99.90;;;;;;4919205;29;20178;-88
2022/01/26 04:16:01;;;;;;;33.07;14.00;;;2.80;99.90;;;;;;4918254;29;20183;-89
2022/01/26 04:18:33;;;;;;;28.70;13.63;;;2.90;99.90;;;;;;4918188;29;20193;-89
2022/01/26 04:21:05;;;;;;;27.70;14.60;;;2.90;99.90;;;;;;4918262;29;20179;-90
2022/01/26 04:23:43;;;;;;;30.30;14.17;;;2.90;99.90;;;;;;4917416;29;20174;-89
2022/01/26 04:26:10;;;;;;;30.07;14.90;;;2.80;99.90;;;;;;4917800;29;20183;-88
2022/01/26 04:28:43;;;;;;;30.33;14.60;;;2.80;99.90;;;;;;4917737;29;20269;-88
2022/01/26 04:31:09;;;;;;;28.10;14.10;;;2.80;99.90;;;;;;4917849;29;20206;-89
2022/01/26 04:33:35;;;;;;;28.00;14.00;;;2.80;99.90;;;;;;4917777;29;20230;-89
2022/01/26 04:36:05;;;;;;;35.13;14.23;;;2.80;99.90;;;;;;4917878;29;20194;-90
2022/01/26 04:38:37;;;;;;;28.43;13.77;;;2.80;99.90;;;;;;4918504;29;20213;-89
2022/01/26 04:41:25;;;;;;;31.27;14.53;;;2.80;99.90;;;;;;4917661;29;20175;-89
2022/01/26 04:44:00;;;;;;;31.63;13.90;;;2.80;99.90;;;;;;4917729;29;20197;-89
2022/01/26 04:46:26;;;;;;;29.53;14.07;;;2.80;99.90;;;;;;4917574;29;20597;-89
2022/01/26 04:48:52;;;;;;;30.83;14.00;;;2.80;99.90;;;;;;4917548;29;20250;-88
2022/01/26 04:51:18;;;;;;;30.63;13.37;;;2.80;99.90;;;;;;4917366;29;20214;-89
2022/01/26 04:53:44;;;;;;;30.20;14.03;;;2.80;99.90;;;;;;4917363;29;20548;-89
2022/01/26 04:56:10;;;;;;;30.50;13.27;;;2.80;99.90;;;;;;4918000;29;20572;-89
2022/01/26 04:58:36;;;;;;;29.90;13.47;;;2.80;99.90;;;;;;4917502;29;20261;-89
2022/01/26 05:01:02;;;;;;;26.53;12.37;;;2.70;99.90;;;;;;4917595;29;20182;-89
2022/01/26 05:03:28;;;;;;;30.00;13.47;;;2.70;99.90;;;;;;4917549;29;20230;-89
2022/01/26 05:05:54;;;;;;;32.10;13.63;;;2.70;99.90;;;;;;4927111;29;20251;-89
2022/01/26 05:08:19;;;;;;;31.37;13.77;;;2.70;99.90;;;;;;4916744;29;20183;-89
2022/01/26 05:10:45;;;;;;;28.13;13.27;;;2.70;99.90;;;;;;4917525;29;20245;-89
2022/01/26 05:13:14;;;;;;;32.30;13.63;;;2.70;99.90;;;;;;4917412;29;20190;-88
2022/01/26 05:15:39;;;;;;;33.27;14.03;;;2.70;99.90;;;;;;4917414;29;20190;-88
2022/01/26 05:18:06;;;;;;;24.90;12.37;;;2.70;99.90;;;;;;4917328;29;20514;-89
2022/01/26 05:20:33;;;;;;;26.60;13.07;;;2.70;99.90;;;;;;4917628;29;20186;-89
2022/01/26 05:22:59;;;;;;;29.27;13.97;;;2.70;99.90;;;;;;4917086;29;20209;-89
2022/01/26 05:25:25;;;;;;;26.30;12.47;;;2.70;99.90;;;;;;4917433;29;20206;-88
2022/01/26 05:27:51;;;;;;;29.37;12.47;;;2.70;99.90;;;;;;4917569;29;20204;-89
2022/01/26 05:30:16;;;;;;;26.87;13.20;;;2.60;99.90;;;;;;4917377;29;20606;-88
2022/01/26 05:32:42;;;;;;;29.80;13.77;;;2.60;99.90;;;;;;4933303;29;20269;-89
2022/01/26 05:35:08;;;;;;;29.67;12.90;;;2.60;99.90;;;;;;4917648;29;20183;-89
2022/01/26 05:37:34;;;;;;;26.80;12.90;;;2.60;99.90;;;;;;4914126;29;20196;-89
2022/01/26 05:40:02;;;;;;;30.43;13.63;;;2.50;99.90;;;;;;4898559;29;20670;-89
2022/01/26 05:42:28;;;;;;;27.53;13.50;;;2.60;99.90;;;;;;4899431;29;20270;-89
2022/01/26 05:44:59;;;;;;;27.90;13.20;;;2.60;99.90;;;;;;4898264;29;20211;-89
2022/01/26 05:47:25;;;;;;;27.53;13.60;;;2.50;99.90;;;;;;4898409;29;20636;-88
2022/01/26 05:49:50;;;;;;;29.53;14.00;;;2.60;99.90;;;;;;4898460;29;20274;-89
2022/01/26 05:52:16;;;;;;;28.07;13.50;;;2.60;99.90;;;;;;4897859;29;20265;-89
2022/01/26 05:54:43;;;;;;;30.57;12.80;;;2.60;99.90;;;;;;4898355;29;20203;-89
2022/01/26 05:57:08;;;;;;;30.50;13.40;;;2.60;99.90;;;;;;4898256;29;20179;-89
2022/01/26 05:59:34;;;;;;;30.00;13.50;;;2.50;99.90;;;;;;4898438;29;20189;-88
2022/01/26 06:02:00;;;;;;;28.03;13.03;;;2.60;99.90;;;;;;4898257;29;20627;-89
2022/01/26 06:04:27;;;;;;;30.47;14.23;;;2.60;99.90;;;;;;4900043;29;20187;-89
2022/01/26 06:06:54;;;;;;;31.73;13.60;;;2.60;99.90;;;;;;4901562;29;20175;-88
2022/01/26 06:09:19;;;;;;;30.60;14.70;;;2.50;99.90;;;;;;4932417;29;20311;-88
2022/01/26 06:11:45;;;;;;;31.00;12.90;;;2.50;99.90;;;;;;4920333;29;20749;-89
2022/01/26 06:14:11;;;;;;;30.50;12.67;;;2.50;99.90;;;;;;4920446;29;20190;-88
2022/01/26 06:16:36;;;;;;;33.50;13.97;;;2.60;99.90;;;;;;4920304;29;20269;-88
2022/01/26 06:19:02;;;;;;;25.70;12.43;;;2.50;99.90;;;;;;4920449;29;20178;-89
2022/01/26 06:21:28;;;;;;;29.20;13.27;;;2.50;99.90;;;;;;4920235;29;20181;-88
2022/01/26 06:23:54;;;;;;;30.23;14.30;;;2.50;99.90;;;;;;4920113;29;20186;-89
2022/01/26 06:26:19;;;;;;;29.60;13.13;;;2.50;99.90;;;;;;4920011;29;20182;-88
2022/01/26 06:28:45;;;;;;;30.77;13.30;;;2.50;99.90;;;;;;4920186;29;20759;-88
2022/01/26 06:31:15;;;;;;;27.10;13.00;;;2.50;99.90;;;;;;4919916;29;20602;-89
2022/01/26 06:33:41;;;;;;;31.83;13.77;;;2.50;99.90;;;;;;4919992;29;20626;-89
2022/01/26 06:36:12;;;;;;;31.27;14.30;;;2.50;99.90;;;;;;4920039;29;20190;-89
2022/01/26 06:38:43;;;;;;;39.00;15.07;;;2.50;99.90;;;;;;4919616;29;20250;-88
2022/01/26 06:41:09;;;;;;;30.67;12.93;;;2.50;99.90;;;;;;4920019;29;20178;-88
2022/01/26 06:43:44;;;;;;;27.10;12.57;;;2.50;99.90;;;;;;4922208;29;20182;-89
2022/01/26 06:46:17;;;;;;;29.93;13.63;;;2.50;99.90;;;;;;4919197;29;20186;-88
2022/01/26 06:51:27;;;;;;;28.50;13.37;;;2.40;99.90;;;;;;4921237;29;20497;-88
2022/01/26 06:53:53;;;;;;;31.30;13.27;;;2.40;99.90;;;;;;4935424;29;20230;-88
2022/01/26 06:56:20;;;;;;;32.10;13.37;;;2.40;99.90;;;;;;4935473;29;20197;-89
2022/01/26 06:58:46;;;;;;;30.53;12.50;;;2.30;99.90;;;;;;4935651;29;20179;-89
2022/01/26 07:01:12;;;;;;;28.97;12.77;;;2.40;99.90;;;;;;4935570;29;20318;-90
2022/01/26 07:03:37;;;;;;;30.50;12.93;;;2.40;99.90;;;;;;4935672;29;20522;-90
2022/01/26 07:06:03;;;;;;;31.67;13.60;;;2.30;99.90;;;;;;4935511;29;20222;-90
2022/01/26 07:08:29;;;;;;;30.37;13.77;;;2.40;99.90;;;;;;4936941;29;20285;-89
2022/01/26 07:11:02;;;;;;;32.57;13.87;;;2.40;99.90;;;;;;4905625;29;20214;-89
2022/01/26 07:13:28;;;;;;;30.53;12.60;;;2.40;99.90;;;;;;4901801;29;20186;-90
2022/01/26 07:21:25;;;;;;;30.63;13.30;;;2.40;99.90;;;;;;4920825;29;20178;-91
2022/01/26 07:23:51;;;;;;;31.87;13.90;;;2.40;99.90;;;;;;4919274;29;20193;-90
2022/01/26 07:26:20;;;;;;;28.37;12.87;;;2.40;99.90;;;;;;4919654;29;20574;-91
2022/01/26 07:28:46;;;;;;;26.60;13.73;;;2.40;99.90;;;;;;4919382;29;20182;-90
2022/01/26 07:31:12;;;;;;;26.83;12.87;;;2.50;99.90;;;;;;4919378;29;20274;-91
2022/01/26 07:33:39;;;;;;;29.63;14.07;;;2.50;99.90;;;;;;4919061;29;20693;-91
2022/01/26 07:36:13;;;;;;;33.73;13.83;;;2.40;99.90;;;;;;4918904;29;20187;-89
2022/01/26 07:38:39;;;;;;;32.17;14.60;;;2.40;99.90;;;;;;4933654;29;20198;-90
2022/01/26 07:41:04;;;;;;;34.80;14.87;;;2.40;99.90;;;;;;4934198;29;20220;-90
2022/01/26 07:43:30;;;;;;;34.97;15.63;;;2.30;99.90;;;;;;4933424;29;20282;-90
2022/01/26 07:45:56;;;;;;;35.03;15.07;;;2.40;99.90;;;;;;4919920;29;20181;-89
2022/01/26 07:48:23;;;;;;;36.73;15.90;;;2.30;99.90;;;;;;4934758;29;20217;-90
2022/01/26 07:50:51;;;;;;;35.67;17.03;;;2.30;99.90;;;;;;4920002;29;20293;-91
2022/01/26 07:53:17;;;;;;;38.97;17.37;;;2.30;99.90;;;;;;4934393;29;20242;-90
2022/01/26 07:55:43;;;;;;;38.00;17.07;;;2.30;99.90;;;;;;4935682;29;20179;-91
2022/01/26 07:58:09;;;;;;;37.00;18.07;;;2.30;99.90;;;;;;4909770;29;20714;-91
2022/01/26 08:00:39;;;;;;;40.77;18.47;;;2.30;99.90;;;;;;4907717;29;20182;-90
2022/01/26 08:03:04;;;;;;;40.53;18.33;;;2.40;99.90;;;;;;4921630;29;20171;-91
2022/01/26 08:05:30;;;;;;;41.63;19.90;;;2.30;99.90;;;;;;4899664;29;20201;-89
2022/01/26 08:08:00;;;;;;;43.27;20.03;;;2.30;99.90;;;;;;4905567;29;20281;-91
2022/01/26 08:10:26;;;;;;;40.47;18.90;;;2.40;99.90;;;;;;4918693;29;20177;-89
2022/01/26 08:12:51;;;;;;;51.03;20.60;;;2.40;99.90;;;;;;4905161;29;20219;-90
2022/01/26 08:15:18;;;;;;;46.67;20.37;;;2.30;99.90;;;;;;4899159;29;20193;-92
2022/01/26 08:17:44;;;;;;;53.47;21.83;;;2.30;99.90;;;;;;4910925;29;20186;-90
2022/01/26 08:20:10;;;;;;;49.03;21.53;;;2.40;99.90;;;;;;4933808;29;20181;-89
2022/01/26 08:22:37;;;;;;;64.80;24.63;;;2.30;99.90;;;;;;4933728;29;20567;-90
2022/01/26 08:25:04;;;;;;;69.80;26.93;;;2.40;99.90;;;;;;4933858;29;20186;-90
2022/01/26 08:27:37;;;;;;;67.90;26.50;;;2.30;99.90;;;;;;4933114;29;20626;-90
2022/01/26 08:30:08;;;;;;;69.63;26.37;;;2.30;99.90;;;;;;4933640;29;20556;-90
2022/01/26 08:32:34;;;;;;;63.40;25.93;;;2.30;99.90;;;;;;4933836;29;20214;-90
2022/01/26 08:35:00;;;;;;;71.23;27.67;;;2.30;99.90;;;;;;4933553;29;20179;-90
2022/01/26 08:37:26;;;;;;;74.33;29.67;;;2.30;99.90;;;;;;4933680;29;20183;-90
2022/01/26 08:39:51;;;;;;;77.07;27.90;;;2.30;99.90;;;;;;4917615;29;20518;-90
2022/01/26 08:42:17;;;;;;;66.47;26.33;;;2.40;99.90;;;;;;4917996;29;20186;-90
2022/01/26 08:44:43;;;;;;;73.07;28.37;;;2.30;99.90;;;;;;4919053;29;20186;-91
2022/01/26 08:47:09;;;;;;;70.00;27.73;;;2.30;99.90;;;;;;4917568;29;20681;-92
2022/01/26 08:49:35;;;;;;;70.20;26.30;;;2.30;99.90;;;;;;4913616;29;20187;-90
2022/01/26 08:52:00;;;;;;;74.23;27.17;;;2.20;99.90;;;;;;4898682;29;20247;-90
2022/01/26 08:54:26;;;;;;;70.50;25.13;;;2.20;99.90;;;;;;4898655;29;20498;-90
2022/01/26 08:56:53;;;;;;;75.97;27.47;;;2.20;99.90;;;;;;4898752;29;20637;-90
2022/01/26 08:59:22;;;;;;;73.20;27.40;;;2.20;99.90;;;;;;4898876;29;20605;-90
2022/01/26 09:01:48;;;;;;;77.33;26.60;;;2.10;99.90;;;;;;4900291;29;20226;-89
2022/01/26 09:04:15;;;;;;;81.47;26.90;;;2.10;99.90;;;;;;4913981;29;20632;-89
2022/01/26 09:06:51;;;;;;;77.17;26.13;;;2.20;99.90;;;;;;4909142;29;20630;-89
2022/01/26 09:09:19;;;;;;;81.80;27.27;;;2.20;99.90;;;;;;4915022;29;20193;-90
2022/01/26 09:11:47;;;;;;;80.27;27.07;;;2.20;99.90;;;;;;4908777;29;20222;-90
2022/01/26 09:14:18;;;;;;;79.10;26.33;;;2.20;99.90;;;;;;4916995;29;20190;-89
2022/01/26 09:16:51;;;;;;;75.00;26.77;;;2.20;99.90;;;;;;4916845;29;20577;-90
2022/01/26 09:19:29;;;;;;;81.27;27.80;;;2.20;99.90;;;;;;4917336;29;20641;-90
2022/01/26 09:22:06;;;;;;;89.13;27.97;;;2.20;99.90;;;;;;4917199;29;20192;-90
2022/01/26 09:24:35;;;;;;;81.43;29.33;;;2.10;99.90;;;;;;4917209;29;20192;-90
2022/01/26 09:27:02;;;;;;;85.27;28.57;;;2.10;99.90;;;;;;4917221;29;20257;-90
2022/01/26 09:29:28;;;;;;;82.57;28.57;;;2.10;99.90;;;;;;4917773;29;20193;-90
2022/01/26 09:31:54;;;;;;;89.77;29.47;;;2.10;99.90;;;;;;4916838;29;20229;-90
2022/01/26 09:34:22;;;;;;;89.80;29.80;;;2.10;99.90;;;;;;4917109;29;20187;-90
2022/01/26 09:36:49;;;;;;;84.57;28.17;;;2.10;99.90;;;;;;4916663;29;20205;-90
2022/01/26 09:39:17;;;;;;;81.63;27.43;;;2.20;99.90;;;;;;4933166;29;20630;-91
2022/01/26 09:41:49;;;;;;;85.70;29.00;;;2.20;99.90;;;;;;4917230;29;20277;-89
2022/01/26 09:44:19;;;;;;;79.73;27.87;;;2.20;99.90;;;;;;4935718;29;20205;-89
2022/01/26 09:46:45;;;;;;;76.50;27.17;;;2.20;99.90;;;;;;4936558;29;20198;-89
2022/01/26 09:49:17;;;;;;;74.73;27.70;;;2.30;99.90;;;;;;4936795;29;20609;-90
2022/01/26 09:51:48;;;;;;;81.73;27.87;;;2.30;99.90;;;;;;4920465;29;20222;-90
2022/01/26 09:54:16;;;;;;;90.43;29.77;;;2.30;99.90;;;;;;4936557;29;20609;-90
2022/01/26 09:56:49;;;;;;;85.07;28.10;;;2.20;99.90;;;;;;4936604;29;20183;-90
2022/01/26 09:59:17;;;;;;;82.73;28.83;;;2.20;99.90;;;;;;4936274;29;20210;-89
2022/01/26 10:01:48;;;;;;;80.60;27.40;;;2.20;99.90;;;;;;4936399;29;20242;-90
2022/01/26 10:04:34;;;;;;;92.83;30.30;;;2.30;99.90;;;;;;4936563;29;20191;-90
2022/01/26 10:07:14;;;;;;;88.83;28.87;;;2.30;99.90;;;;;;4921392;29;20171;-90
2022/01/26 10:17:44;;;;;;;89.27;28.33;;;2.30;99.90;;;;;;4913301;29;20198;-90
2022/01/26 10:20:15;;;;;;;91.47;28.57;;;2.20;99.90;;;;;;4920224;29;20258;-90
2022/01/26 10:22:42;;;;;;;90.07;30.17;;;2.20;99.90;;;;;;4904625;29;20191;-90
2022/01/26 10:25:16;;;;;;;89.93;28.67;;;2.20;99.90;;;;;;4901008;29;20191;-90
2022/01/26 10:27:51;;;;;;;95.00;28.80;;;2.30;99.90;;;;;;4901162;29;20198;-90
2022/01/26 10:30:20;;;;;;;84.67;28.10;;;2.20;99.90;;;;;;4905515;29;20233;-89
2022/01/26 10:32:47;;;;;;;87.33;28.50;;;2.20;99.90;;;;;;4903391;29;20222;-89
2022/01/26 10:35:15;;;;;;;84.13;28.77;;;2.20;99.90;;;;;;4900965;29;20200;-89
2022/01/26 10:37:53;;;;;;;91.00;29.53;;;2.30;99.90;;;;;;4900890;29;20202;-89
2022/01/26 10:40:22;;;;;;;85.77;28.33;;;2.20;99.90;;;;;;4900674;29;20289;-89
2022/01/26 10:43:07;;;;;;;100.33;30.47;;;2.20;99.90;;;;;;4906887;29;20191;-88
2022/01/26 10:45:53;;;;;;;99.30;30.30;;;2.20;99.90;;;;;;4919481;29;20229;-86
2022/01/26 10:49:05;;;;;;;103.37;32.50;;;2.20;99.90;;;;;;4915994;29;20330;-88
2022/01/26 10:53:53;;;;;;;96.77;32.63;;;2.30;99.90;;;;;;4901480;29;20278;-87
2022/01/26 10:56:19;;;;;;;90.20;31.70;;;2.20;99.90;;;;;;4914770;29;20186;-88
2022/01/26 10:58:46;;;;;;;92.97;29.43;;;2.10;99.90;;;;;;4918555;29;20183;-89
2022/01/26 11:01:12;;;;;;;101.37;32.13;;;2.20;99.90;;;;;;4900246;29;20191;-88
2022/01/26 11:03:39;;;;;;;102.53;32.17;;;2.20;99.90;;;;;;4909132;29;20202;-89
2022/01/26 11:06:06;;;;;;;108.20;32.10;;;2.20;99.90;;;;;;4919107;29;20232;-89
2022/01/26 11:08:38;;;;;;;103.87;32.40;;;2.10;99.90;;;;;;4919129;29;20190;-88
2022/01/26 11:11:04;;;;;;;101.10;32.53;;;2.20;99.90;;;;;;4919579;29;20248;-88
2022/01/26 11:13:36;;;;;;;107.90;32.43;;;2.20;99.90;;;;;;4919380;29;20244;-88
2022/01/26 11:16:10;;;;;;;104.97;32.37;;;2.10;99.90;;;;;;4920080;29;20205;-89
2022/01/26 11:18:54;;;;;;;92.97;30.70;;;2.10;99.90;;;;;;4918558;29;20220;-89
2022/01/26 11:21:33;;;;;;;103.43;32.20;;;2.00;99.90;;;;;;4919058;29;20182;-88
2022/01/26 11:24:26;;;;;;;105.77;32.83;;;2.00;99.90;;;;;;4918446;29;20182;-87
2022/01/26 11:27:05;;;;;;;96.53;32.43;;;2.10;99.90;;;;;;4919430;29;20327;-87
2022/01/26 11:29:35;;;;;;;112.13;33.33;;;2.00;99.90;;;;;;4918724;29;20191;-86
2022/01/26 11:32:18;;;;;;;107.20;33.33;;;2.00;99.90;;;;;;4918569;29;20226;-88
2022/01/26 11:34:43;;;;;;;106.20;34.53;;;2.00;99.90;;;;;;4918872;29;20179;-89
2022/01/26 11:37:13;;;;;;;111.27;33.47;;;2.00;99.90;;;;;;4917718;29;20200;-88
2022/01/26 11:45:15;;;;;;;112.77;35.03;;;2.10;99.90;;;;;;4908753;29;20190;-89
2022/01/26 11:47:56;;;;;;;109.97;33.73;;;2.10;99.90;;;;;;4918203;29;20194;-89
2022/01/26 11:50:22;;;;;;;113.43;34.33;;;2.10;99.90;;;;;;4908392;29;20190;-88
2022/01/26 11:53:05;;;;;;;105.97;33.83;;;2.10;99.90;;;;;;4917914;29;20477;-89
2022/01/26 11:55:35;;;;;;;108.27;34.27;;;2.00;99.90;;;;;;4917646;29;20186;-89
2022/01/26 11:58:08;;;;;;;104.70;34.47;;;2.00;99.90;;;;;;4934246;29;20229;-89
2022/01/26 12:01:10;;;;;;;109.93;34.20;;;2.00;99.90;;;;;;4932783;29;20178;-88
2022/01/26 12:03:32;;;;;;;108.87;34.10;;;2.10;99.90;;;;;;4900095;29;20230;-89
2022/01/26 12:05:59;;;;;;;115.10;35.00;;;2.10;99.90;;;;;;4911528;29;20222;-89
2022/01/26 12:08:38;;;;;;;102.03;32.53;;;2.20;99.90;;;;;;4917351;29;20665;-89
2022/01/26 12:11:09;;;;;;;104.50;33.33;;;2.20;99.90;;;;;;4917797;29;20600;-89
2022/01/26 12:13:39;;;;;;;107.93;33.20;;;2.10;99.90;;;;;;4918294;29;20179;-89
2022/01/26 12:16:11;;;;;;;104.80;33.93;;;2.10;99.90;;;;;;4917878;29;20519;-88
2022/01/26 12:18:45;;;;;;;113.67;36.27;;;2.10;99.90;;;;;;4917944;29;20198;-88
2022/01/26 12:38:14;;;;;;;112.23;35.10;;;2.20;99.90;;;;;;4918135;29;20269;-88
2022/01/26 12:43:48;;;;;;;106.53;33.57;;;2.20;99.90;;;;;;4918895;29;20240;-87
2022/01/26 12:46:20;;;;;;;102.33;34.13;;;2.20;99.90;;;;;;4917704;29;20193;-89
2022/01/26 12:48:51;;;;;;;106.47;34.17;;;2.10;99.90;;;;;;4917680;29;20321;-89
2022/01/26 12:51:18;;;;;;;104.83;35.07;;;2.20;99.90;;;;;;4917736;29;20244;-89
2022/01/26 12:53:43;;;;;;;98.77;33.13;;;2.20;99.90;;;;;;4918646;29;20309;-89
2022/01/26 12:56:13;;;;;;;99.00;33.27;;;2.20;99.90;;;;;;4917108;29;20582;-88
2022/01/26 12:58:41;;;;;;;103.93;33.67;;;2.20;99.90;;;;;;4917199;29;20198;-87
2022/01/26 13:01:17;;;;;;;107.37;34.27;;;2.20;99.90;;;;;;4917112;29;20341;-89
2022/01/26 13:03:43;;;;;;;102.17;33.20;;;2.20;99.90;;;;;;4917215;29;20188;-89
2022/01/26 13:06:09;;;;;;;91.33;32.90;;;2.20;99.90;;;;;;4917864;29;20190;-89
2022/01/26 13:08:51;;;;;;;97.30;35.07;;;2.30;99.90;;;;;;4933625;29;20179;-89
2022/01/26 13:11:34;;;;;;;113.13;37.00;;;2.20;99.90;;;;;;4933227;29;20202;-90
2022/01/26 13:14:20;;;;;;;104.40;35.07;;;2.20;99.90;;;;;;4920187;29;20174;-89
2022/01/26 13:41:40;;;;;;;111.37;39.07;;;2.30;99.90;;;;;;4922475;29;20193;-89
2022/01/26 13:51:20;;;;;;;122.83;40.67;;;2.40;99.90;;;;;;4921064;29;20301;-87
2022/01/26 13:53:59;;;;;;;117.07;40.53;;;2.40;99.90;;;;;;4918526;29;20762;-89
2022/01/26 13:59:37;;;;;;;121.07;40.03;;;2.40;99.90;;;;;;4900693;29;20195;-88
2022/01/26 14:02:03;;;;;;;122.77;40.80;;;2.30;99.90;;;;;;4919769;29;20247;-89
2022/01/26 14:04:28;;;;;;;122.97;42.10;;;2.40;99.90;;;;;;4903394;29;20226;-88
2022/01/26 14:06:54;;;;;;;121.30;41.47;;;2.40;99.90;;;;;;4912924;29;20191;-89
2022/01/26 14:09:20;;;;;;;131.93;41.37;;;2.30;99.90;;;;;;4921368;29;20606;-89
2022/01/26 14:11:48;;;;;;;127.17;40.73;;;2.30;99.90;;;;;;4920108;29;20218;-88
2022/01/26 14:14:21;;;;;;;134.23;42.27;;;2.30;99.90;;;;;;4920476;29;20407;-89
2022/01/26 14:16:56;;;;;;;130.63;42.87;;;2.30;99.90;;;;;;4920241;29;20182;-88
2022/01/26 14:22:29;;;;;;;135.00;43.30;;;2.30;99.90;;;;;;4921369;29;20170;-90
2022/01/26 14:25:06;;;;;;;129.13;42.97;;;2.30;99.90;;;;;;4907859;29;20278;-90
2022/01/26 14:27:42;;;;;;;132.27;41.77;;;2.40;99.90;;;;;;4901206;29;20175;-91
2022/01/26 14:35:44;;;;;;;133.47;44.00;;;2.30;99.90;;;;;;4902233;29;20170;-89
2022/01/26 15:20:41;;;;;;;162.40;46.60;;;2.30;99.90;;;;;;4915045;29;20205;-91
2022/01/26 15:30:27;;;;;;;157.30;44.70;;;2.20;99.90;;;;;;4920571;29;20258;-90
2022/01/26 15:41:22;;;;;;;145.97;44.90;;;2.20;99.90;;;;;;4919945;29;20189;-90
2022/01/26 15:44:18;;;;;;;146.30;42.43;;;2.20;99.90;;;;;;4918974;29;20238;-90
2022/01/26 15:49:43;;;;;;;143.83;43.70;;;2.30;99.90;;;;;;4920040;29;20280;-90
2022/01/26 15:52:19;;;;;;;141.03;41.50;;;2.30;99.90;;;;;;4933928;29;20238;-90
2022/01/26 15:57:55;;;;;;;146.07;42.27;;;2.30;99.90;;;;;;4919997;29;20181;-90
2022/01/26 16:36:53;;;;;;;117.37;37.30;;;2.30;99.90;;;;;;4919586;29;20180;-89
2022/01/26 16:39:20;;;;;;;119.97;37.87;;;2.40;99.90;;;;;;4918303;29;20220;-89
2022/01/26 18:13:06;;;;;;;99.50;29.87;;;2.40;99.90;;;;;;4905865;29;20566;-89
2022/01/26 18:16:59;;;;;;;107.57;31.43;;;2.40;99.90;;;;;;4903068;29;20231;-87
2022/01/26 18:32:58;;;;;;;107.17;30.93;;;2.40;99.90;;;;;;4904776;29;20719;-90
2022/01/26 18:51:55;;;;;;;107.43;30.87;;;2.40;99.90;;;;;;4919420;29;20680;-89
2022/01/26 18:54:32;;;;;;;101.80;30.83;;;2.40;99.90;;;;;;4906655;29;20214;-89
2022/01/26 18:57:10;;;;;;;100.20;30.60;;;2.40;99.90;;;;;;4902999;29;20190;-91
2022/01/26 18:59:37;;;;;;;113.97;32.47;;;2.40;99.90;;;;;;4903247;29;20198;-89
2022/01/26 19:02:08;;;;;;;96.90;29.63;;;2.40;99.90;;;;;;4919272;29;20507;-90
2022/01/26 19:04:44;;;;;;;91.73;28.53;;;2.40;99.90;;;;;;4903496;29;20175;-90
2022/01/26 19:07:11;;;;;;;98.93;30.40;;;2.40;99.90;;;;;;4911547;29;20633;-90
2022/01/26 19:09:41;;;;;;;104.40;31.60;;;2.40;99.90;;;;;;4918662;29;20591;-90
2022/01/26 19:12:11;;;;;;;92.30;28.67;;;2.50;99.90;;;;;;4919850;29;20219;-89
2022/01/26 19:14:54;;;;;;;91.43;29.73;;;2.50;99.90;;;;;;4921505;29;20210;-90